Nearby METAR Reports

 

KSJC - San Jose, California, USA
Distance from station: NE 9mi, 14km
Updated: Tue, 18-Dec-2018 4:53am PST
Clear
Clear
 Wind from E
Wind: E 5 mph , 7 km/h
Temperature: 46°F , 8°C
Wind Chill: 44°F , 7°C
Dew Point: 45°F , 7°C
Humidity: 93%
Barometer: 30.29 inHg , 1025.7 hPa
Clouds: Clear
Visibility: 10 miles , 16 km
2018/12/18 12:53 KSJC 181253Z AUTO 10004KT 10SM CLR 08/07 A3029 RMK AO2 SLP256 T00780067
KNUQ - Moffett Nas/Mtn, California, USA
Distance from station: N 9mi, 14km
Updated: Tue, 18-Dec-2018 5:35am PST
unable to load KNUQ data RC=
unable to load KNUQ data RC=
 
 
KPAO - Palo Alto, California, USA
Distance from station: NNW 14mi, 23km
Updated: Mon, 17-Dec-2018 8:47pm PST
NOT Current
Few Clouds
Few Clouds
 Wind from calm
Wind: Calm
Temperature: 52°F , 11°C
Dew Point: 48°F , 9°C
Humidity: 88%
Barometer: 30.29 inHg , 1025.7 hPa
Clouds: Few Clouds
Visibility: 10 miles , 16 km
Cloud details: Few Clouds 20000 ft
2018/12/18 04:47 KPAO 180447Z 00000KT 10SM FEW200 11/09 A3029 RMK LAST
KRHV - San Jose/Reid, California, USA
Distance from station: ENE 12mi, 19km
Updated: Mon, 17-Dec-2018 9:55pm PST
NOT Current
Mostly cloudy
Mostly cloudy
 Wind from calm
Wind: Calm
Temperature: 50°F , 10°C
Dew Point: 48°F , 9°C
Humidity: 94%
Barometer: 30.27 inHg , 1025.1 hPa
Clouds: Mostly cloudy
Visibility: 10 miles , 16 km
Cloud details: Mostly cloudy 12000 ft
2018/12/18 05:55 KRHV 180555Z 00000KT 10SM BKN120 10/09 A3027 RMK LAST
 
KOAK - Oakland, California, USA
Distance from station: NNW 31mi, 50km
Updated: Tue, 18-Dec-2018 4:53am PST
Few Clouds
Few Clouds
 Wind from ESE
Wind: ESE 5 mph , 7 km/h
Temperature: 48°F , 9°C
Wind Chill: 46°F , 8°C
Dew Point: 46°F , 8°C
Humidity: 94%
Barometer: 30.30 inHg , 1026.1 hPa
Clouds: Few Clouds
Visibility: 10 miles , 16 km
Cloud details: Few Clouds 2100 ft
2018/12/18 12:53 KOAK 181253Z 12004KT 10SM FEW021 09/08 A3030 RMK AO2 SLP258 T00940083
KSQL - San Carlos Airpo, California, USA
Distance from station: NW 21mi, 34km
Updated: Tue, 18-Dec-2018 5:15am PST
Clear
Clear
 Wind from calm
Wind: Calm
Temperature: 45°F , 7°C
Dew Point: 45°F , 7°C
Humidity: 100%
Barometer: 30.29 inHg , 1025.7 hPa
Clouds: Clear
Visibility: 10 miles , 16 km
2018/12/18 13:15 KSQL 181315Z AUTO 00000KT 10SM CLR 07/07 A3029 RMK AO2
 
KSFO - San Francisco, California, USA
Distance from station: NW 30mi, 49km
Updated: Tue, 18-Dec-2018 4:56am PST
Few Clouds
Few Clouds
 Wind from S
Wind: S 3 mph , 6 km/h
Temperature: 48°F , 9°C
Dew Point: 46°F , 8°C
Humidity: 94%
Barometer: 30.28 inHg , 1025.4 hPa
Clouds: Few Clouds
Visibility: 10 miles , 16 km
Cloud details: Few Clouds 1700 ft
2018/12/18 12:56 KSFO 181256Z 17003KT 10SM FEW017 09/08 A3028 RMK AO2 SLP252 T00940078
KE16 - San Martin, California, USA
Distance from station: ESE 27mi, 43km
Updated: Tue, 18-Dec-2018 5:10am PST
Overcast
Overcast
 Wind from calm
Wind: Calm
Temperature: 43°F , 6°C
Dew Point: 43°F , 6°C
Humidity: 100%
Barometer: 30.32 inHg , 1026.8 hPa
Clouds: Overcast
Visibility: 10 miles , 16 km
Cloud details: Overcast 1100 ft
2018/12/18 13:10 KE16 181310Z AUTO 00000KT 10SM OVC011 06/06 A3032 RMK AO2
 
KWVI - Watsonville, California, USA
Distance from station: SSE 27mi, 44km
Updated: Tue, 18-Dec-2018 4:53am PST
Clear
Clear
 Wind from NNW
Wind: NNW 3 mph , 6 km/h
Temperature: 45°F , 7°C
Dew Point: 45°F , 7°C
Humidity: 100%
Barometer: 30.30 inHg , 1026.1 hPa
Clouds: Clear
Visibility: 10 miles , 16 km
2018/12/18 12:53 KWVI 181253Z AUTO 34003KT 10SM CLR 07/07 A3030 RMK AO2 SLP258 T00720072
KHAF - Half Moon Bay, California, USA
Distance from station: WNW 31mi, 50km
Updated: Tue, 18-Dec-2018 5:20am PST
Clear
Clear
 Wind from calm
Wind: Calm
Temperature: 43°F , 6°C
Dew Point: 41°F , 5°C
Humidity: 93%
Barometer: 30.29 inHg , 1025.7 hPa
Clouds: Clear
Visibility: 8 miles , 13 km
2018/12/18 13:20 KHAF 181320Z AUTO 00000KT 8SM CLR 06/05 A3029 RMK AO2
 
KHWD - Hayward, California, USA
Distance from station: N 28mi, 44km
Updated: Tue, 18-Dec-2018 4:54am PST
Clear
Clear
 Wind from SE
Wind: SE 3 mph , 6 km/h
Temperature: 48°F , 9°C
Dew Point: 45°F , 7°C
Humidity: 87%
Barometer: 30.29 inHg , 1025.7 hPa
Clouds: Clear
Visibility: 10 miles , 16 km
2018/12/18 12:54 KHWD 181254Z AUTO 13003KT 10SM CLR 09/07 A3029 RMK AO2 SLP266 T00890067
KLVK - Livermore, California, USA
Distance from station: NNE 31mi, 51km
Updated: Tue, 18-Dec-2018 4:53am PST
Mist, Clear
Mist, Clear
 Wind from ENE
Wind: ENE 3 mph , 6 km/h
Temperature: 41°F , 5°C
Dew Point: 39°F , 4°C
Humidity: 93%
Barometer: 30.29 inHg , 1025.7 hPa
Summary: Mist
Clouds: Clear
Visibility: 6 miles , 10 km
2018/12/18 12:53 KLVK 181253Z AUTO 07003KT 6SM BR CLR 05/04 A3029 RMK AO2 SLP257 T00500039